Time;durP1;ratioP1;P1;durP2;ratioP2;P2;SDS_P1;SDS_P2;PMS_P1;PMS_P2;Temp;Humidity;BMP_temperature;BMP_pressure;BME280_temperature;BME280_humidity;BME280_pressure;Samples;Min_cycle;Max_cycle;Signal;HPM_P1;HPM_P2
2022/10/13 00:00:20;;;;;;;5.35;3.08;;;;;;;11.74;78.70;101951.69;5035496;28;105425;-30
2022/10/13 00:02:46;;;;;;;5.20;2.97;;;;;;;11.73;79.74;101949.94;5036518;27;102827;-30
2022/10/13 00:05:11;;;;;;;7.15;3.70;;;;;;;11.74;79.17;101950.81;5036970;27;96599;-30
2022/10/13 00:07:36;;;;;;;8.73;3.22;;;;;;;11.77;79.53;101962.41;5037064;27;96778;-30
2022/10/13 00:10:02;;;;;;;7.22;3.33;;;;;;;11.78;79.82;101964.19;5036542;28;109361;-30
2022/10/13 00:12:28;;;;;;;5.65;2.83;;;;;;;11.78;79.76;101971.44;5035818;27;100853;-30
2022/10/13 00:14:53;;;;;;;12.25;2.97;;;;;;;11.77;80.49;101964.25;5036366;27;100666;-32
2022/10/13 00:17:18;;;;;;;10.20;3.08;;;;;;;11.78;78.99;101958.75;5036877;28;96852;-30
2022/10/13 00:19:44;;;;;;;11.90;3.55;;;;;;;11.78;79.36;101964.19;5035819;27;104704;-30
2022/10/13 00:22:09;;;;;;;4.75;2.55;;;;;;;11.79;79.90;101965.91;5036875;27;97771;-30
2022/10/13 00:24:34;;;;;;;7.00;3.42;;;;;;;11.81;79.62;101964.00;5036902;27;96603;-30
2022/10/13 00:26:59;;;;;;;7.88;3.40;;;;;;;11.80;79.96;101959.56;5036417;27;97434;-31
2022/10/13 00:29:25;;;;;;;6.75;2.63;;;;;;;11.82;79.68;101960.38;5035806;27;117258;-30
2022/10/13 00:31:50;;;;;;;6.13;3.30;;;;;;;11.80;79.91;101959.56;5036455;27;97808;-31
2022/10/13 00:34:15;;;;;;;7.25;2.78;;;;;;;11.80;79.63;101965.00;5036519;28;96621;-30
2022/10/13 00:36:41;;;;;;;10.02;2.83;;;;;;;11.81;80.23;101963.16;5035700;28;96949;-31
2022/10/13 00:39:07;;;;;;;5.80;3.13;;;;;;;11.78;79.51;101958.75;5035819;28;116852;-30
2022/10/13 00:41:32;;;;;;;8.57;3.55;;;;;;;11.82;79.88;101959.47;5036206;28;99245;-30
2022/10/13 00:44:01;;;;;;;8.20;3.17;;;;;;;11.81;80.04;101963.16;5035754;28;98658;-30
2022/10/13 00:46:45;;;;;;;7.22;3.53;;;;;;;11.80;79.92;101954.13;5035634;28;98445;-30
2022/10/13 00:49:13;;;;;;;3.80;2.50;;;;;;;11.80;79.84;101962.28;5035968;28;109211;-30
2022/10/13 00:51:46;;;;;;;7.00;2.85;;;;;;;11.81;81.17;101960.44;5036265;27;99496;-30
2022/10/13 00:54:16;;;;;;;7.68;3.22;;;;;;;11.82;80.34;101959.47;5034965;28;96606;-30
2022/10/13 00:56:44;;;;;;;7.32;3.58;;;;;;;11.83;80.22;101951.25;5036747;27;96756;-31
2022/10/13 00:59:21;;;;;;;5.45;3.13;;;;;;;11.84;80.12;101955.72;5034687;28;101261;-29
2022/10/13 01:01:46;;;;;;;6.75;2.70;;;;;;;11.85;80.20;101965.63;5034888;28;100989;-31
2022/10/13 01:04:11;;;;;;;9.60;3.28;;;;;;;11.85;81.06;101964.75;5036094;28;102512;-29
2022/10/13 01:06:37;;;;;;;10.35;3.22;;;;;;;11.90;81.06;101968.16;5036551;27;96724;-30
2022/10/13 01:09:02;;;;;;;9.20;3.55;;;;;;;11.93;80.78;101959.84;5035326;27;98047;-30
2022/10/13 01:11:41;;;;;;;6.50;2.63;;;;;;;11.94;81.77;101955.28;5035769;27;97843;-30
2022/10/13 01:14:17;;;;;;;4.63;2.85;;;;;;;12.00;81.73;101930.56;5034557;28;96612;-30
2022/10/13 01:16:53;;;;;;;6.32;2.80;;;;;;;12.05;81.78;101918.50;5034805;28;96714;-31
2022/10/13 01:19:18;;;;;;;8.85;3.38;;;;;;;12.08;81.66;101922.91;5034427;28;100895;-30
2022/10/13 01:22:02;;;;;;;7.03;3.40;;;;;;;12.11;81.13;101925.47;5035521;27;97314;-30
2022/10/13 01:24:43;;;;;;;7.75;3.33;;;;;;;12.13;81.20;101939.84;5034441;28;96501;-30
2022/10/13 01:27:30;;;;;;;4.20;2.72;;;;;;;12.13;80.85;101942.56;5036240;27;96856;-31
2022/10/13 01:30:09;;;;;;;6.13;2.95;;;;;;;12.13;81.93;101947.97;5035749;28;98089;-30
2022/10/13 01:32:37;;;;;;;5.47;3.03;;;;;;;12.15;81.93;101946.06;5035258;27;99117;-30
2022/10/13 01:35:10;;;;;;;8.55;3.97;;;;;;;12.18;81.50;101947.75;5033752;28;96623;-30
2022/10/13 01:37:42;;;;;;;7.82;3.22;;;;;;;12.19;81.83;101947.69;5034424;28;96927;-30
2022/10/13 01:40:23;;;;;;;4.45;2.85;;;;;;;12.19;81.41;101944.09;5035407;28;97674;-30
2022/10/13 01:43:05;;;;;;;7.68;3.17;;;;;;;12.20;82.86;101940.41;5033791;27;100787;-30
2022/10/13 01:45:36;;;;;;;5.93;3.47;;;;;;;12.20;82.74;101932.25;5034986;27;96664;-30
2022/10/13 01:48:04;;;;;;;6.75;2.97;;;;;;;12.22;82.18;101936.66;5034282;28;96802;-30
2022/10/13 01:50:32;;;;;;;5.05;2.55;;;;;;;12.25;82.43;101930.19;5035138;27;99029;-30
2022/10/13 01:53:01;;;;;;;6.25;2.95;;;;;;;12.23;81.86;101924.84;5034153;28;100808;-30
2022/10/13 01:55:27;;;;;;;4.18;2.13;;;;;;;12.22;82.34;101923.06;5034201;28;96494;-30
2022/10/13 01:57:53;;;;;;;5.68;2.88;;;;;;;12.23;82.87;101897.69;5035566;28;96732;-30
2022/10/13 02:00:20;;;;;;;4.78;2.75;;;;;;;12.27;82.35;101901.09;5034261;28;109407;-30
2022/10/13 02:02:56;;;;;;;6.30;3.35;;;;;;;12.26;82.55;101900.25;5033690;28;99661;-30
2022/10/13 02:05:37;;;;;;;4.50;2.55;;;;;;;12.24;83.48;101898.56;5033627;28;96679;-30
2022/10/13 02:08:19;;;;;;;6.07;2.72;;;;;;;12.21;84.67;101890.56;5034068;28;96733;-31
2022/10/13 02:11:06;;;;;;;9.80;3.13;;;;;;;12.21;84.80;101883.31;5033504;28;100947;-30
2022/10/13 02:13:35;;;;;;;7.53;3.15;;;;;;;12.19;83.93;101884.34;5034639;27;99338;-29
2022/10/13 02:16:01;;;;;;;9.57;3.55;;;;;;;12.19;83.96;101889.78;5033671;28;96585;-30
2022/10/13 02:18:33;;;;;;;7.40;3.20;;;;;;;12.19;84.03;101893.38;5034194;28;96565;-31
2022/10/13 02:20:59;;;;;;;11.20;3.20;;;;;;;12.16;84.71;101892.66;5034705;27;98969;-29
2022/10/13 02:23:26;;;;;;;5.85;2.92;;;;;;;12.18;84.54;101893.44;5032371;28;101028;-30
2022/10/13 02:25:54;;;;;;;7.80;2.90;;;;;;;12.13;84.35;101880.09;5033190;28;96558;-30
2022/10/13 02:28:20;;;;;;;7.53;3.65;;;;;;;12.15;84.99;101880.00;5033571;28;96801;-32
2022/10/13 02:30:46;;;;;;;5.47;2.85;;;;;;;12.15;85.53;101891.75;5034782;27;97368;-30
2022/10/13 02:33:13;;;;;;;5.53;2.38;;;;;;;12.15;85.69;101889.03;5034740;28;97917;-30
2022/10/13 02:35:39;;;;;;;7.50;2.67;;;;;;;12.15;85.35;101889.03;5033494;28;96721;-30
2022/10/13 02:38:04;;;;;;;6.95;2.67;;;;;;;12.15;85.21;101888.16;5033473;28;96856;-30
2022/10/13 02:40:29;;;;;;;5.80;2.88;;;;;;;12.18;84.90;101891.63;5034618;27;98517;-31
2022/10/13 02:42:55;;;;;;;7.65;2.88;;;;;;;12.19;85.73;101881.63;5034589;27;97846;-30
2022/10/13 02:45:20;;;;;;;6.07;2.90;;;;;;;12.18;86.83;101879.84;5034283;27;96631;-30
2022/10/13 02:47:46;;;;;;;6.53;2.53;;;;;;;12.18;85.56;101877.13;5034742;27;96836;-30
2022/10/13 02:50:12;;;;;;;6.72;3.15;;;;;;;12.18;85.96;101886.19;5034058;27;97948;-29
2022/10/13 02:52:37;;;;;;;6.88;3.13;;;;;;;12.21;85.52;101880.59;5033114;28;100912;-30
2022/10/13 02:55:03;;;;;;;5.40;3.22;;;;;;;12.22;85.34;101874.19;5034836;27;96665;-30
2022/10/13 02:57:29;;;;;;;10.43;3.08;;;;;;;12.20;86.03;101861.63;5032985;28;96847;-32
2022/10/13 02:59:54;;;;;;;6.13;2.70;;;;;;;12.20;85.78;101856.22;5034113;27;99428;-30
2022/10/13 03:02:19;;;;;;;6.53;2.20;;;;;;;12.23;86.04;101866.94;5033716;27;107767;-30
2022/10/13 03:04:45;;;;;;;9.25;3.65;;;;;;;12.21;85.96;101861.56;5034698;27;96637;-31
2022/10/13 03:07:10;;;;;;;6.35;2.78;;;;;;;12.22;85.32;101868.75;5035252;28;96718;-30
2022/10/13 03:09:35;;;;;;;5.65;2.72;;;;;;;12.22;86.48;101874.19;5034127;28;99236;-32
2022/10/13 03:12:01;;;;;;;5.10;2.80;;;;;;;12.20;86.98;101872.50;5033981;27;99110;-30
2022/10/13 03:14:26;;;;;;;7.15;3.25;;;;;;;12.20;86.11;101862.50;5033521;27;96645;-30
2022/10/13 03:16:52;;;;;;;6.22;3.08;;;;;;;12.19;87.49;101851.75;5034233;27;96857;-30
2022/10/13 03:19:17;;;;;;;7.22;2.92;;;;;;;12.20;86.74;101846.22;5034123;28;101167;-30
2022/10/13 03:21:42;;;;;;;7.68;2.58;;;;;;;12.23;87.52;101850.63;5033708;28;112680;-30
2022/10/13 03:24:07;;;;;;;6.50;2.60;;;;;;;12.21;86.67;101848.00;5033645;28;105613;-30
2022/10/13 03:26:33;;;;;;;8.05;3.20;;;;;;;12.21;86.82;101828.97;5034466;27;96749;-30
2022/10/13 03:28:59;;;;;;;8.90;3.00;;;;;;;12.22;86.33;101816.25;5032566;28;101070;-30
2022/10/13 03:31:25;;;;;;;7.65;3.13;;;;;;;12.22;86.46;101817.13;5034354;28;97837;-32
2022/10/13 03:33:50;;;;;;;6.38;3.08;;;;;;;12.24;87.30;101814.34;5034515;27;96726;-30
2022/10/13 03:36:16;;;;;;;6.05;2.60;;;;;;;12.26;86.75;101817.88;5037282;27;102483;-30
2022/10/13 03:38:41;;;;;;;6.97;3.13;;;;;;;12.28;87.00;101827.69;5036849;27;97952;-30
2022/10/13 03:41:08;;;;;;;6.53;2.95;;;;;;;12.27;87.19;101834.06;5037262;27;97697;-30
2022/10/13 03:43:34;;;;;;;4.72;2.67;;;;;;;12.24;88.91;101845.09;5036035;27;96708;-29
2022/10/13 03:46:01;;;;;;;5.88;2.78;;;;;;;12.22;88.73;101835.28;5037020;28;96923;-30
2022/10/13 03:48:28;;;;;;;5.20;2.75;;;;;;;12.26;87.45;101845.91;5035791;28;101015;-30
2022/10/13 03:50:53;;;;;;;7.20;2.50;;;;;;;12.26;88.96;101837.75;5035662;28;100872;-30
2022/10/13 03:53:19;;;;;;;5.80;2.65;;;;;;;12.29;88.11;101837.59;5037232;27;96598;-30
2022/10/13 03:55:53;;;;;;;10.65;3.38;;;;;;;12.27;87.63;101841.34;5037378;27;96865;-30
2022/10/13 03:58:20;;;;;;;8.60;2.55;;;;;;;12.27;89.96;101830.47;5035513;28;101299;-30
2022/10/13 04:00:46;;;;;;;5.05;3.13;;;;;;;12.29;88.40;101828.56;5035379;28;101055;-30
2022/10/13 04:03:12;;;;;;;5.47;2.30;;;;;;;12.32;88.07;101836.53;5035248;28;96598;-30
2022/10/13 04:05:37;;;;;;;6.80;2.95;;;;;;;12.32;88.36;101822.94;5035722;28;96793;-31
2022/10/13 04:08:04;;;;;;;6.82;2.85;;;;;;;12.33;87.91;101835.59;5036688;28;98890;-30
2022/10/13 04:10:29;;;;;;;6.93;2.97;;;;;;;12.35;87.90;101832.78;5035508;28;100542;-32
2022/10/13 04:12:55;;;;;;;4.72;2.78;;;;;;;12.35;87.47;101840.94;5037178;27;96630;-30
2022/10/13 04:15:20;;;;;;;3.75;2.40;;;;;;;12.34;87.81;101842.78;5036349;28;106801;-30
2022/10/13 04:17:45;;;;;;;5.05;2.58;;;;;;;12.36;88.42;101837.28;5036259;27;109991;-30
2022/10/13 04:20:11;;;;;;;7.45;2.97;;;;;;;12.33;87.50;101841.91;5037221;27;97465;-30
2022/10/13 04:22:36;;;;;;;5.47;2.75;;;;;;;12.34;88.67;101848.22;5036849;27;96426;-30
2022/10/13 04:25:02;;;;;;;7.72;3.00;;;;;;;12.32;87.96;101845.59;5036837;28;96701;-30
2022/10/13 04:27:27;;;;;;;7.32;2.58;;;;;;;12.31;87.91;101838.38;5034620;28;102027;-30
2022/10/13 04:29:53;;;;;;;5.25;2.60;;;;;;;12.32;88.52;101840.16;5036753;27;97822;-30
2022/10/13 04:32:18;;;;;;;4.50;2.88;;;;;;;12.30;88.34;101831.22;5036715;28;96631;-30
2022/10/13 04:34:43;;;;;;;4.30;2.67;;;;;;;12.34;87.98;101845.50;5036365;27;105805;-30
2022/10/13 04:37:09;;;;;;;5.10;2.78;;;;;;;12.33;88.05;101847.34;5036281;28;107479;-33
2022/10/13 04:39:34;;;;;;;8.02;2.38;;;;;;;12.33;88.02;101836.47;5036359;27;97746;-30
2022/10/13 04:42:00;;;;;;;5.35;2.90;;;;;;;12.34;88.79;101821.03;5036804;27;96661;-30
2022/10/13 04:44:25;;;;;;;8.13;2.72;;;;;;;12.37;88.51;101820.91;5036698;27;96763;-30
2022/10/13 04:46:50;;;;;;;4.32;2.45;;;;;;;12.37;89.57;101825.44;5035605;27;104492;-29
2022/10/13 04:49:16;;;;;;;4.18;2.17;;;;;;;12.38;88.92;101822.63;5036395;27;100127;-32
2022/10/13 04:51:41;;;;;;;8.05;2.92;;;;;;;12.40;89.20;101822.56;5035857;27;96541;-30
2022/10/13 04:54:07;;;;;;;4.90;2.47;;;;;;;12.40;88.91;101831.59;5036323;27;96833;-29
2022/10/13 04:56:32;;;;;;;6.22;2.42;;;;;;;12.40;88.98;101825.28;5036182;27;98434;-29
2022/10/13 04:58:58;;;;;;;7.10;3.05;;;;;;;12.40;88.78;101820.72;5036192;27;97948;-30
2022/10/13 05:01:24;;;;;;;7.63;2.92;;;;;;;12.41;89.41;101824.31;5036465;27;96533;-30
2022/10/13 05:03:54;;;;;;;8.23;2.60;;;;;;;12.40;89.43;101826.16;5034943;28;96878;-29
2022/10/13 05:06:22;;;;;;;2.97;1.90;;;;;;;12.42;90.12;101828.78;5034483;28;100954;-30
2022/10/13 05:08:48;;;;;;;4.60;2.47;;;;;;;12.44;89.70;101825.03;5034973;28;100616;-31
2022/10/13 05:11:14;;;;;;;4.93;2.42;;;;;;;12.46;90.13;101824.94;5034699;28;96674;-31
2022/10/13 05:13:39;;;;;;;2.90;2.08;;;;;;;12.46;89.68;101822.22;5036173;27;96818;-30
2022/10/13 05:16:07;;;;;;;4.55;2.90;;;;;;;12.46;89.43;101824.94;5034584;27;121473;-29
2022/10/13 05:18:32;;;;;;;6.55;2.47;;;;;;;12.45;90.62;101836.78;5035793;28;97723;-30
2022/10/13 05:21:15;;;;;;;6.65;2.47;;;;;;;12.45;91.58;101829.50;5035603;27;102423;-32
2022/10/13 05:23:41;;;;;;;5.65;2.50;;;;;;;12.43;91.28;101820.56;5034728;28;96702;-31
2022/10/13 05:26:10;;;;;;;5.93;2.60;;;;;;;12.46;91.33;101817.66;5034204;28;100922;-31
2022/10/13 05:28:36;;;;;;;7.25;2.70;;;;;;;12.47;90.96;101815.84;5034182;28;101435;-30
2022/10/13 05:31:12;;;;;;;6.03;3.05;;;;;;;12.50;90.62;101815.66;5034417;28;96647;-30
2022/10/13 05:33:38;;;;;;;5.80;2.80;;;;;;;12.50;90.51;101807.50;5034823;28;96797;-31
2022/10/13 05:36:16;;;;;;;7.05;3.28;;;;;;;12.50;90.43;101811.09;5034128;28;101093;-29
2022/10/13 05:38:41;;;;;;;4.10;2.45;;;;;;;12.51;90.34;101806.53;5034071;28;100503;-30
2022/10/13 05:41:12;;;;;;;5.97;2.63;;;;;;;12.54;90.38;101795.53;5035286;27;96589;-30
2022/10/13 05:43:39;;;;;;;5.57;3.28;;;;;;;12.52;91.18;101792.00;5035482;27;96497;-31
2022/10/13 05:46:04;;;;;;;4.47;2.92;;;;;;;12.50;91.18;101764.03;5033474;28;100803;-31
2022/10/13 05:48:31;;;;;;;7.28;2.88;;;;;;;12.52;91.38;101752.13;5035152;28;99218;-30
2022/10/13 05:50:59;;;;;;;8.02;3.35;;;;;;;12.54;90.59;101752.91;5035655;27;96580;-30
2022/10/13 05:53:29;;;;;;;5.63;3.08;;;;;;;12.52;90.41;101773.84;5034124;28;96911;-29
2022/10/13 05:55:57;;;;;;;5.00;2.97;;;;;;;12.53;90.63;101774.72;5033488;28;101372;-31
2022/10/13 05:58:23;;;;;;;9.02;3.50;;;;;;;12.50;90.67;101775.78;5033311;28;100867;-29
2022/10/13 06:00:50;;;;;;;6.53;3.38;;;;;;;12.53;91.04;101780.16;5033984;28;96620;-30
2022/10/13 06:03:20;;;;;;;6.38;3.15;;;;;;;12.52;92.24;101787.44;5035466;27;96754;-30
2022/10/13 06:05:46;;;;;;;5.07;2.75;;;;;;;12.53;92.36;101793.75;5034679;27;98023;-31
2022/10/13 06:08:13;;;;;;;10.07;3.10;;;;;;;12.51;91.22;101790.22;5034801;27;99240;-29
2022/10/13 06:10:40;;;;;;;6.72;3.08;;;;;;;12.52;93.09;101798.31;5033962;28;97106;-30
2022/10/13 06:13:05;;;;;;;8.63;3.03;;;;;;;12.50;93.01;101794.81;5033884;28;96852;-32
2022/10/13 06:15:31;;;;;;;10.15;3.25;;;;;;;12.53;92.87;101794.63;5034597;27;99217;-31
2022/10/13 06:17:57;;;;;;;5.45;2.95;;;;;;;12.54;91.96;101806.41;5035024;28;97971;-29
2022/10/13 06:20:22;;;;;;;4.55;2.85;;;;;;;12.54;92.79;101800.97;5035307;28;96466;-29
2022/10/13 06:22:49;;;;;;;6.88;3.58;;;;;;;12.55;92.99;101797.28;5035310;27;96944;-29
2022/10/13 06:25:15;;;;;;;9.25;4.13;;;;;;;12.57;92.39;101800.78;5034493;27;99506;-29
2022/10/13 06:27:41;;;;;;;8.10;3.72;;;;;;;12.56;92.80;101793.59;5032861;28;100768;-30
2022/10/13 06:30:07;;;;;;;4.90;3.00;;;;;;;12.57;92.63;101784.47;5034647;27;96431;-30
2022/10/13 06:32:32;;;;;;;7.65;2.80;;;;;;;12.58;91.67;101790.78;5034985;28;96793;-30
2022/10/13 06:34:59;;;;;;;5.65;3.58;;;;;;;12.61;91.88;101794.22;5034746;28;97953;-30
2022/10/13 06:37:24;;;;;;;5.22;3.20;;;;;;;12.62;92.31;101798.69;5033888;28;121696;-30
2022/10/13 06:39:50;;;;;;;6.15;3.17;;;;;;;12.60;91.94;101795.16;5034513;28;104381;-30
2022/10/13 06:42:15;;;;;;;8.77;3.75;;;;;;;12.61;91.92;101793.31;5034668;27;96800;-30
2022/10/13 06:44:41;;;;;;;6.97;3.33;;;;;;;12.63;91.66;101799.56;5034288;27;99375;-31
2022/10/13 06:47:06;;;;;;;10.43;3.83;;;;;;;12.62;91.27;101804.13;5034267;27;98790;-29
2022/10/13 06:49:32;;;;;;;5.75;3.10;;;;;;;12.61;92.63;101802.38;5033405;28;96667;-30
2022/10/13 06:51:57;;;;;;;5.90;3.45;;;;;;;12.63;92.47;101805.00;5034759;28;96788;-29
2022/10/13 06:54:22;;;;;;;13.25;4.03;;;;;;;12.66;92.53;101805.72;5033825;27;99329;-30
2022/10/13 06:56:48;;;;;;;6.10;3.83;;;;;;;12.66;92.19;101800.28;5033672;28;108131;-29
2022/10/13 06:59:13;;;;;;;6.10;3.88;;;;;;;12.65;91.82;101793.06;5034810;27;96590;-30
2022/10/13 07:01:38;;;;;;;8.02;3.75;;;;;;;12.69;91.91;101794.66;5034372;27;96805;-30
2022/10/13 07:04:04;;;;;;;7.30;3.50;;;;;;;12.69;91.79;101799.25;5034054;27;98809;-30
2022/10/13 07:06:30;;;;;;;7.10;3.97;;;;;;;12.71;91.45;101800.91;5032916;28;101331;-30
2022/10/13 07:08:55;;;;;;;7.55;3.35;;;;;;;12.71;91.62;101795.47;5036404;27;96474;-30
2022/10/13 07:11:20;;;;;;;7.43;3.80;;;;;;;12.74;91.49;101797.13;5037427;27;109846;-31
2022/10/13 07:13:45;;;;;;;6.63;3.05;;;;;;;12.71;92.38;101784.59;5037052;28;116507;-30
2022/10/13 07:16:11;;;;;;;11.05;3.72;;;;;;;12.74;91.85;101789.84;5037428;28;110235;-31
2022/10/13 07:18:37;;;;;;;6.43;3.58;;;;;;;12.78;92.38;101784.25;5035215;28;102345;-29
2022/10/13 07:21:03;;;;;;;8.05;3.38;;;;;;;12.79;91.69;101788.72;5036636;28;96897;-30
2022/10/13 07:23:29;;;;;;;5.63;2.83;;;;;;;12.78;91.97;101776.09;5036195;27;99601;-30
2022/10/13 07:25:56;;;;;;;6.72;3.15;;;;;;;12.80;91.70;101776.88;5035874;28;100715;-31
2022/10/13 07:28:25;;;;;;;7.35;3.53;;;;;;;12.83;91.65;101787.59;5036302;28;96558;-32
2022/10/13 07:30:51;;;;;;;7.57;3.25;;;;;;;12.82;91.85;101786.69;5036472;28;96917;-30
2022/10/13 07:33:18;;;;;;;7.18;3.30;;;;;;;12.84;91.16;101783.91;5036066;28;100799;-30
2022/10/13 07:35:43;;;;;;;5.68;3.15;;;;;;;12.83;91.53;101788.47;5036280;28;100702;-29
2022/10/13 07:38:09;;;;;;;6.70;2.90;;;;;;;12.85;92.85;101785.69;5037644;27;97111;-30
2022/10/13 07:40:34;;;;;;;4.05;2.75;;;;;;;12.86;92.49;101785.56;5037503;27;96875;-31
2022/10/13 07:43:00;;;;;;;6.75;3.13;;;;;;;12.92;91.68;101787.09;5036755;27;97991;-30
2022/10/13 07:45:26;;;;;;;6.18;2.92;;;;;;;12.99;91.69;101788.50;5036614;27;99043;-30
2022/10/13 07:47:51;;;;;;;6.70;3.10;;;;;;;13.05;92.24;101788.13;5037600;28;96565;-30
2022/10/13 07:50:16;;;;;;;7.07;3.38;;;;;;;13.10;92.15;101787.88;5036783;28;112594;-29
2022/10/13 07:52:42;;;;;;;8.07;3.33;;;;;;;13.15;92.21;101789.34;5036915;27;99951;-30
2022/10/13 07:55:08;;;;;;;6.35;3.13;;;;;;;13.13;92.08;101788.59;5037002;27;99755;-31
2022/10/13 07:57:33;;;;;;;5.32;3.00;;;;;;;13.12;92.21;101784.09;5036044;28;96619;-30
2022/10/13 07:59:59;;;;;;;5.15;2.75;;;;;;;13.17;91.65;101789.28;5036383;28;96892;-30
2022/10/13 08:02:25;;;;;;;7.43;2.65;;;;;;;13.17;91.66;101794.72;5035545;28;100903;-29
2022/10/13 08:04:50;;;;;;;5.88;2.70;;;;;;;13.14;91.82;101781.28;5036744;28;99344;-30
2022/10/13 08:07:16;;;;;;;5.10;2.95;;;;;;;13.14;92.01;101797.63;5036822;27;96555;-30
2022/10/13 08:09:41;;;;;;;5.03;2.78;;;;;;;13.12;92.09;101792.25;5037056;27;96790;-30
2022/10/13 08:12:07;;;;;;;5.75;2.67;;;;;;;13.09;92.98;101789.72;5036826;27;97496;-30
2022/10/13 08:14:32;;;;;;;5.68;3.10;;;;;;;13.12;93.00;101794.09;5036533;28;97333;-29
2022/10/13 08:16:58;;;;;;;6.50;3.13;;;;;;;13.11;92.42;101787.78;5037434;27;96588;-30
2022/10/13 08:19:25;;;;;;;6.50;3.20;;;;;;;13.14;92.53;101790.31;5036261;27;96823;-31
2022/10/13 08:21:51;;;;;;;6.18;3.70;;;;;;;13.13;92.91;101784.97;5034956;28;100892;-30
2022/10/13 08:24:17;;;;;;;7.00;3.53;;;;;;;13.21;91.74;101787.28;5036952;27;97291;-29
2022/10/13 08:26:44;;;;;;;5.72;3.42;;;;;;;13.23;92.19;101779.88;5035449;28;96584;-29
2022/10/13 08:29:10;;;;;;;5.63;3.03;;;;;;;13.26;91.95;101779.72;5035395;28;96738;-30
2022/10/13 08:31:35;;;;;;;8.85;4.10;;;;;;;13.28;91.65;101781.41;5034530;28;100954;-30
2022/10/13 08:34:01;;;;;;;7.13;3.53;;;;;;;13.31;92.14;101783.94;5036472;27;97833;-30
2022/10/13 08:36:26;;;;;;;6.88;4.00;;;;;;;13.29;92.49;101774.13;5036644;28;96489;-30
2022/10/13 08:38:52;;;;;;;17.88;4.60;;;;;;;13.27;92.90;101774.19;5036474;27;96798;-30
2022/10/13 08:41:31;;;;;;;11.85;4.07;;;;;;;13.27;92.25;101773.28;5036141;28;98956;-31
2022/10/13 08:44:03;;;;;;;8.05;3.58;;;;;;;13.32;92.51;101782.09;5036317;27;97863;-29
2022/10/13 08:46:36;;;;;;;7.75;3.63;;;;;;;13.30;92.81;101774.03;5034566;28;96793;-29
2022/10/13 08:49:03;;;;;;;9.93;3.83;;;;;;;13.28;92.15;101772.38;5035753;28;96791;-29
2022/10/13 08:51:29;;;;;;;7.05;3.97;;;;;;;13.29;93.15;101777.72;5036060;27;97473;-31
2022/10/13 08:53:54;;;;;;;6.78;4.00;;;;;;;13.35;92.34;101779.22;5035939;27;99297;-29
2022/10/13 08:56:26;;;;;;;7.97;3.92;;;;;;;13.41;92.20;101784.28;5035923;27;96575;-30
2022/10/13 08:58:55;;;;;;;6.53;3.58;;;;;;;13.42;91.82;101777.88;5035112;28;96938;-30
2022/10/13 09:01:29;;;;;;;10.82;3.97;;;;;;;13.46;92.03;101786.75;5034764;28;101440;-32
2022/10/13 09:04:09;;;;;;;11.57;3.88;;;;;;;13.45;92.17;101780.41;5034403;27;100827;-29
2022/10/13 09:06:50;;;;;;;10.02;4.22;;;;;;;13.46;91.40;101768.56;5036298;27;96719;-29
2022/10/13 09:09:16;;;;;;;8.52;3.58;;;;;;;13.51;91.25;101760.13;5034953;28;96733;-30
2022/10/13 09:11:44;;;;;;;6.35;3.42;;;;;;;13.51;90.81;101757.41;5035648;28;99682;-31
2022/10/13 09:14:19;;;;;;;10.40;3.33;;;;;;;13.55;91.03;101764.41;5034710;28;101117;-30
2022/10/13 09:16:45;;;;;;;11.10;3.78;;;;;;;13.54;91.13;101758.09;5034761;28;96657;-30
2022/10/13 09:19:26;;;;;;;7.95;3.40;;;;;;;13.57;91.16;101774.25;5034625;28;96862;-31
2022/10/13 09:22:11;;;;;;;6.47;3.33;;;;;;;13.62;90.73;101770.38;5034006;28;100748;-29
2022/10/13 09:24:37;;;;;;;9.32;3.70;;;;;;;13.67;91.31;101757.38;5034261;28;100991;-31
2022/10/13 09:27:12;;;;;;;7.32;3.88;;;;;;;13.65;91.08;101764.75;5035977;27;96801;-29
2022/10/13 09:29:38;;;;;;;6.70;3.42;;;;;;;13.64;90.94;101757.56;5036234;27;96613;-30
2022/10/13 09:32:18;;;;;;;11.40;3.83;;;;;;;13.70;90.70;101758.03;5033871;27;100939;-29
2022/10/13 09:34:44;;;;;;;6.50;3.30;;;;;;;13.73;90.79;101762.44;5035725;27;97806;-30
2022/10/13 09:37:23;;;;;;;7.10;3.67;;;;;;;13.73;91.11;101762.44;5035771;27;96605;-30
2022/10/13 09:40:18;;;;;;;7.82;3.53;;;;;;;13.72;91.20;101763.41;5036109;27;97073;-30
2022/10/13 09:42:50;;;;;;;6.85;3.78;;;;;;;13.73;90.41;101752.44;5033731;27;100851;-29
2022/10/13 09:45:20;;;;;;;5.82;3.05;;;;;;;13.77;90.25;101759.44;5033438;28;100771;-30
2022/10/13 09:47:50;;;;;;;6.40;3.17;;;;;;;13.79;90.37;101748.47;5034888;27;96720;-29
2022/10/13 09:50:23;;;;;;;7.53;3.83;;;;;;;13.85;90.29;101748.09;5035612;28;96835;-29
2022/10/13 09:52:49;;;;;;;7.10;3.80;;;;;;;13.91;90.22;101746.84;5033846;28;100857;-30
2022/10/13 09:55:33;;;;;;;11.10;4.10;;;;;;;14.00;89.76;101752.59;5033821;28;99877;-29
2022/10/13 09:58:11;;;;;;;9.73;3.92;;;;;;;14.05;89.65;101751.44;5033988;28;96638;-34
2022/10/13 10:00:37;;;;;;;6.45;3.42;;;;;;;14.10;89.43;101760.19;5034103;28;96766;-30
2022/10/13 10:03:18;;;;;;;10.65;4.97;;;;;;;14.13;89.22;101755.41;5033623;27;101304;-30
2022/10/13 10:05:54;;;;;;;7.82;3.75;;;;;;;14.16;89.27;101755.25;5034152;28;100870;-30
2022/10/13 10:08:28;;;;;;;10.23;3.95;;;;;;;14.15;89.54;101744.44;5035190;27;96566;-29
2022/10/13 10:10:55;;;;;;;9.10;3.40;;;;;;;14.26;89.13;101749.22;5033925;28;96723;-30
2022/10/13 10:13:21;;;;;;;9.38;3.50;;;;;;;14.28;89.10;101739.09;5033035;28;98903;-31
2022/10/13 10:16:18;;;;;;;5.20;3.13;;;;;;;14.39;89.21;101740.16;5033227;28;100421;-29
2022/10/13 10:18:51;;;;;;;9.68;3.80;;;;;;;14.48;88.84;101743.28;5035314;28;96758;-30
2022/10/13 10:21:40;;;;;;;7.45;3.75;;;;;;;14.51;88.53;101737.63;5033896;28;96896;-29
2022/10/13 10:24:41;;;;;;;9.27;3.88;;;;;;;14.53;88.30;101736.56;5033251;28;100953;-30
2022/10/13 10:27:30;;;;;;;10.25;3.88;;;;;;;14.56;88.28;101735.53;5014386;27;97410;-29
2022/10/13 10:30:01;;;;;;;9.90;3.42;;;;;;;14.60;87.79;101734.34;5035651;27;96604;-30
2022/10/13 10:32:34;;;;;;;11.83;3.90;;;;;;;14.58;87.91;101733.56;5035704;27;96645;-30
2022/10/13 10:35:41;;;;;;;7.00;3.47;;;;;;;14.63;87.75;101726.88;5033315;28;101016;-29
2022/10/13 10:38:12;;;;;;;7.55;4.05;;;;;;;14.68;87.76;101720.22;5034134;28;97929;-29
2022/10/13 10:40:59;;;;;;;8.05;4.05;;;;;;;14.73;87.49;101723.53;5033071;28;96620;-29
2022/10/13 10:43:33;;;;;;;8.27;3.55;;;;;;;14.69;87.44;101725.59;5032486;27;96822;-30
2022/10/13 10:45:59;;;;;;;9.50;3.78;;;;;;;14.70;87.50;101715.56;5033736;27;97582;-30
2022/10/13 10:48:37;;;;;;;9.63;4.55;;;;;;;14.73;87.33;101705.34;5034325;27;99092;-29
2022/10/13 10:51:06;;;;;;;15.05;4.95;;;;;;;14.74;86.74;101714.38;5032396;28;96838;-30
2022/10/13 10:53:51;;;;;;;9.07;4.53;;;;;;;14.79;87.20;101724.00;5031956;28;96843;-29
2022/10/13 10:56:37;;;;;;;13.75;5.18;;;;;;;14.83;86.27;101714.66;5034986;27;97341;-30
2022/10/13 10:59:21;;;;;;;15.02;5.03;;;;;;;14.84;86.47;101708.22;5033438;28;100207;-29
2022/10/13 11:02:24;;;;;;;13.73;5.40;;;;;;;14.85;86.12;101717.28;5033379;28;96754;-30
2022/10/13 11:04:52;;;;;;;10.73;4.80;;;;;;;14.90;85.91;101711.50;5032973;28;96743;-30
2022/10/13 11:07:23;;;;;;;15.77;4.68;;;;;;;14.87;85.97;101707.13;5033535;28;97750;-29
2022/10/13 11:09:51;;;;;;;10.67;5.30;;;;;;;14.86;85.79;101708.13;5034408;28;97342;-30
2022/10/13 11:12:20;;;;;;;10.93;4.80;;;;;;;14.82;86.21;101707.44;5033145;28;96676;-30
2022/10/13 11:14:47;;;;;;;10.68;5.05;;;;;;;14.83;86.82;101697.41;5034505;28;96683;-31
2022/10/13 11:17:18;;;;;;;18.30;5.18;;;;;;;14.82;86.23;101701.97;5032549;28;100995;-30
2022/10/13 11:19:49;;;;;;;12.18;4.85;;;;;;;14.81;86.01;101702.09;5032719;28;100864;-29
2022/10/13 11:22:22;;;;;;;13.48;4.32;;;;;;;14.76;85.73;101694.22;5033138;28;96691;-30
2022/10/13 11:24:49;;;;;;;22.38;6.43;;;;;;;14.77;85.49;101689.63;5033076;28;96848;-31
2022/10/13 11:27:15;;;;;;;11.52;5.18;;;;;;;14.82;85.46;101695.66;5034145;27;98584;-30
2022/10/13 11:29:44;;;;;;;16.67;5.82;;;;;;;14.84;85.42;101683.66;5034096;27;97810;-29